Time;durP1;ratioP1;P1;durP2;ratioP2;P2;SDS_P1;SDS_P2;PMS_P1;PMS_P2;Temp;Humidity;BMP_temperature;BMP_pressure;BME280_temperature;BME280_humidity;BME280_pressure;Samples;Min_cycle;Max_cycle;Signal;HPM_P1;HPM_P2
2023/08/24 00:01:42;;;;;;;5.57;3.60;;;14.50;99.90;;;;;;5049510;28;20237;-83
2023/08/24 00:04:08;;;;;;;5.87;3.83;;;14.50;99.90;;;;;;5077793;28;20269;-81
2023/08/24 00:06:34;;;;;;;6.27;3.87;;;14.60;99.90;;;;;;5046867;28;20705;-82
2023/08/24 00:09:00;;;;;;;11.27;4.97;;;14.70;99.90;;;;;;5030343;28;20183;-83
2023/08/24 00:11:26;;;;;;;9.33;5.67;;;14.70;99.90;;;;;;5047157;28;20579;-83
2023/08/24 00:13:52;;;;;;;6.77;4.17;;;14.80;99.90;;;;;;5028998;28;20222;-82
2023/08/24 00:16:21;;;;;;;5.03;3.83;;;14.80;99.90;;;;;;5029215;28;20226;-82
2023/08/24 00:18:47;;;;;;;2.30;2.10;;;14.60;99.90;;;;;;5047088;28;20213;-83
2023/08/24 00:21:22;;;;;;;7.33;3.50;;;14.40;99.90;;;;;;5047498;28;20182;-83
2023/08/24 00:23:49;;;;;;;5.17;3.63;;;14.40;99.90;;;;;;5047610;28;20216;-83
2023/08/24 00:26:18;;;;;;;5.97;3.60;;;14.60;99.90;;;;;;5046630;28;20210;-80
2023/08/24 00:28:44;;;;;;;4.67;3.10;;;14.80;99.90;;;;;;5047043;28;20248;-82
2023/08/24 00:31:09;;;;;;;5.33;4.13;;;14.90;99.90;;;;;;5028922;28;20237;-82
2023/08/24 00:33:36;;;;;;;17.87;4.53;;;14.90;99.90;;;;;;5047255;28;20178;-82
2023/08/24 00:36:02;;;;;;;7.33;3.87;;;15.00;99.90;;;;;;5047562;28;20265;-83
2023/08/24 00:38:28;;;;;;;4.60;3.67;;;15.00;99.90;;;;;;5050205;28;20343;-82
2023/08/24 00:40:55;;;;;;;6.33;4.87;;;15.00;99.90;;;;;;5050834;28;20224;-83
2023/08/24 00:43:23;;;;;;;6.93;4.40;;;15.00;99.90;;;;;;5050695;28;20221;-82
2023/08/24 00:45:55;;;;;;;6.70;4.30;;;15.10;99.90;;;;;;5033074;28;20300;-83
2023/08/24 00:48:25;;;;;;;6.83;4.73;;;15.10;99.90;;;;;;5032768;28;20236;-82
2023/08/24 00:50:52;;;;;;;5.93;4.07;;;15.20;99.90;;;;;;5066731;28;20194;-83
2023/08/24 00:53:20;;;;;;;6.53;4.40;;;15.20;99.90;;;;;;5050615;28;20213;-83
2023/08/24 00:55:46;;;;;;;8.97;5.17;;;15.20;99.90;;;;;;5033178;28;20275;-82
2023/08/24 00:58:13;;;;;;;5.70;3.70;;;15.20;99.90;;;;;;5050593;28;20218;-83
2023/08/24 01:00:39;;;;;;;6.30;4.97;;;15.20;99.90;;;;;;5032861;28;20222;-83
2023/08/24 01:03:05;;;;;;;8.83;4.07;;;15.20;99.90;;;;;;5033352;28;20174;-84
2023/08/24 01:05:31;;;;;;;11.63;4.00;;;15.20;99.90;;;;;;5055321;28;20575;-83
2023/08/24 01:07:56;;;;;;;6.10;2.43;;;15.10;99.90;;;;;;5032700;28;20299;-84
2023/08/24 01:10:24;;;;;;;7.50;3.33;;;14.80;99.90;;;;;;5049157;28;20229;-84
2023/08/24 01:12:58;;;;;;;3.23;2.17;;;14.50;99.90;;;;;;5032261;28;20365;-83
2023/08/24 01:15:37;;;;;;;3.77;1.60;;;14.20;99.90;;;;;;5050215;28;20173;-83
2023/08/24 01:18:06;;;;;;;2.37;1.83;;;14.10;99.90;;;;;;5050829;28;20216;-81
2023/08/24 01:20:34;;;;;;;2.47;1.47;;;14.00;99.90;;;;;;5050497;28;20642;-81
2023/08/24 01:23:35;;;;;;;2.63;2.07;;;14.10;99.90;;;;;;5032520;28;20232;-83
2023/08/24 01:26:20;;;;;;;2.67;2.27;;;14.10;99.90;;;;;;5035881;28;20221;-81
2023/08/24 01:28:47;;;;;;;6.13;2.30;;;14.10;99.90;;;;;;5016628;28;20249;-82
2023/08/24 01:31:17;;;;;;;2.13;1.60;;;14.10;99.90;;;;;;5032930;28;20234;-82
2023/08/24 01:33:44;;;;;;;2.77;2.40;;;14.10;99.90;;;;;;5032494;28;20285;-83
2023/08/24 01:36:12;;;;;;;2.60;2.40;;;14.10;99.90;;;;;;5050648;28;20183;-84
2023/08/24 01:38:39;;;;;;;3.57;2.90;;;14.20;99.90;;;;;;5032496;28;20776;-82
2023/08/24 01:41:24;;;;;;;3.10;1.90;;;14.20;99.90;;;;;;5050008;28;20287;-83
2023/08/24 01:43:54;;;;;;;5.30;3.10;;;14.40;99.90;;;;;;5049888;28;20222;-84
2023/08/24 01:46:22;;;;;;;7.17;3.73;;;14.50;99.90;;;;;;5049672;28;20205;-83
2023/08/24 01:48:48;;;;;;;4.87;3.93;;;14.60;99.90;;;;;;5032134;28;20213;-84
2023/08/24 01:51:15;;;;;;;8.17;3.30;;;14.70;99.90;;;;;;5050278;28;20240;-82
2023/08/24 01:53:41;;;;;;;6.47;3.47;;;14.70;99.90;;;;;;5031873;28;20606;-83
2023/08/24 01:56:15;;;;;;;6.40;3.60;;;14.70;99.90;;;;;;5049538;28;20226;-85
2023/08/24 01:58:41;;;;;;;4.10;2.97;;;14.80;99.90;;;;;;5049501;28;20222;-85
2023/08/24 02:01:08;;;;;;;4.57;3.17;;;14.80;99.90;;;;;;5049443;28;20228;-85
2023/08/24 02:03:34;;;;;;;6.00;3.67;;;14.90;99.90;;;;;;5031645;28;20417;-85
2023/08/24 02:05:59;;;;;;;5.33;3.30;;;14.90;99.90;;;;;;5031998;28;20683;-85
2023/08/24 02:08:25;;;;;;;5.37;3.47;;;15.00;99.90;;;;;;5031600;28;20309;-84
2023/08/24 02:10:51;;;;;;;4.83;3.40;;;15.00;99.90;;;;;;5031466;28;20253;-84
2023/08/24 02:13:17;;;;;;;5.33;3.53;;;14.90;99.90;;;;;;5048986;28;20209;-84
2023/08/24 02:15:42;;;;;;;6.37;4.50;;;14.90;99.90;;;;;;5048124;28;20361;-85
2023/08/24 02:18:08;;;;;;;3.43;2.63;;;14.90;99.90;;;;;;5032003;28;20648;-84
2023/08/24 02:20:38;;;;;;;6.73;3.77;;;14.90;99.90;;;;;;5031252;28;20881;-84
2023/08/24 02:23:04;;;;;;;8.23;4.63;;;14.90;99.90;;;;;;5048855;28;20233;-85
2023/08/24 02:25:30;;;;;;;7.63;5.30;;;15.00;99.90;;;;;;5031177;28;20308;-85
2023/08/24 02:27:56;;;;;;;7.10;4.23;;;15.00;99.90;;;;;;5049083;28;20213;-85
2023/08/24 02:30:22;;;;;;;9.43;4.50;;;15.00;99.90;;;;;;5048859;28;20628;-83
2023/08/24 02:32:49;;;;;;;8.80;4.60;;;15.10;99.90;;;;;;5049274;28;20277;-85
2023/08/24 02:35:15;;;;;;;5.77;4.30;;;15.10;99.90;;;;;;5048881;28;20249;-85
2023/08/24 02:37:40;;;;;;;11.13;4.37;;;15.10;99.90;;;;;;5048815;28;20245;-83
2023/08/24 02:40:09;;;;;;;10.03;4.97;;;15.20;99.90;;;;;;5048724;28;20222;-85
2023/08/24 02:42:35;;;;;;;11.43;5.30;;;15.10;99.90;;;;;;5048558;28;20240;-82
2023/08/24 02:45:01;;;;;;;5.77;4.20;;;15.10;99.90;;;;;;5049269;28;20576;-84
2023/08/24 02:47:26;;;;;;;7.37;4.47;;;15.10;99.90;;;;;;5047314;28;20309;-84
2023/08/24 02:49:52;;;;;;;7.47;3.33;;;15.10;99.90;;;;;;5048398;28;20233;-84
2023/08/24 02:52:18;;;;;;;7.53;4.27;;;15.10;99.90;;;;;;5030571;28;20233;-84
2023/08/24 02:54:44;;;;;;;6.77;4.90;;;15.00;99.90;;;;;;5030710;28;20214;-84
2023/08/24 02:57:09;;;;;;;6.23;3.87;;;15.00;99.90;;;;;;5031161;28;20213;-84
2023/08/24 02:59:35;;;;;;;5.33;3.27;;;14.90;99.90;;;;;;5029661;28;20573;-82
2023/08/24 03:02:01;;;;;;;7.73;4.10;;;14.90;99.90;;;;;;5048481;28;20301;-86
2023/08/24 03:04:27;;;;;;;7.83;4.13;;;14.80;99.90;;;;;;5030303;28;20218;-85
2023/08/24 03:06:53;;;;;;;7.60;4.63;;;14.90;99.90;;;;;;5048220;28;20304;-84
2023/08/24 03:09:18;;;;;;;4.57;3.47;;;14.90;99.90;;;;;;5029967;28;20182;-84
2023/08/24 03:11:44;;;;;;;4.53;3.53;;;14.90;99.90;;;;;;5048517;28;20186;-82
2023/08/24 03:14:10;;;;;;;6.07;3.47;;;14.90;99.90;;;;;;5029938;28;20224;-85
2023/08/24 03:16:39;;;;;;;7.70;4.77;;;14.90;99.90;;;;;;5013515;28;20222;-84
2023/08/24 03:19:04;;;;;;;9.53;5.37;;;14.90;99.90;;;;;;5047862;28;20214;-85
2023/08/24 03:21:30;;;;;;;6.77;4.30;;;15.00;99.90;;;;;;5030023;28;20181;-85
2023/08/24 03:23:56;;;;;;;7.30;4.73;;;15.10;99.90;;;;;;5048304;28;20197;-84
2023/08/24 03:26:23;;;;;;;9.37;4.53;;;15.20;99.90;;;;;;5029979;28;20220;-85
2023/08/24 03:28:49;;;;;;;5.53;4.57;;;15.20;99.90;;;;;;5046804;28;20557;-84
2023/08/24 03:31:15;;;;;;;6.03;4.43;;;15.20;99.90;;;;;;5030183;28;20762;-86
2023/08/24 03:33:40;;;;;;;6.73;5.37;;;15.10;99.90;;;;;;5029911;28;20237;-83
2023/08/24 03:36:06;;;;;;;6.30;4.03;;;15.00;99.90;;;;;;5047463;28;20527;-83
2023/08/24 03:38:32;;;;;;;5.67;4.23;;;14.90;99.90;;;;;;5046450;28;20673;-84
2023/08/24 03:41:03;;;;;;;9.77;4.13;;;14.80;99.90;;;;;;5029913;28;20332;-85
2023/08/24 03:43:33;;;;;;;6.17;4.37;;;14.70;99.90;;;;;;5062758;28;20221;-85
2023/08/24 03:45:59;;;;;;;5.47;4.07;;;14.80;99.90;;;;;;5047254;28;20667;-85
2023/08/24 03:48:25;;;;;;;4.90;3.40;;;14.90;99.90;;;;;;5029704;28;20232;-85
2023/08/24 03:50:54;;;;;;;10.33;4.43;;;15.00;99.90;;;;;;5030393;28;20244;-85
2023/08/24 03:53:20;;;;;;;7.77;5.03;;;15.00;99.90;;;;;;5047139;28;20273;-84
2023/08/24 03:55:48;;;;;;;6.70;4.33;;;15.10;99.90;;;;;;5047435;28;20226;-84
2023/08/24 03:58:14;;;;;;;6.33;4.00;;;15.10;99.90;;;;;;5029562;28;20220;-83
2023/08/24 04:00:41;;;;;;;6.93;4.00;;;15.10;99.90;;;;;;5029267;28;20214;-84
2023/08/24 04:03:07;;;;;;;8.57;4.30;;;15.10;99.90;;;;;;5029852;28;20651;-84
2023/08/24 04:05:33;;;;;;;6.07;4.07;;;15.00;99.90;;;;;;5047226;28;20329;-84
2023/08/24 04:08:00;;;;;;;4.30;3.90;;;14.90;99.90;;;;;;5046104;28;20750;-84
2023/08/24 04:10:27;;;;;;;5.83;3.07;;;14.80;99.90;;;;;;5047005;28;20268;-85
2023/08/24 04:12:53;;;;;;;3.27;2.40;;;14.60;99.90;;;;;;5047100;28;20221;-84
2023/08/24 04:15:19;;;;;;;20.63;3.57;;;14.40;99.90;;;;;;5029111;28;20178;-84
2023/08/24 04:17:44;;;;;;;11.13;3.07;;;14.20;99.90;;;;;;5030122;28;20347;-85
2023/08/24 04:20:11;;;;;;;4.77;3.30;;;14.00;99.90;;;;;;5047280;28;20308;-84
2023/08/24 04:22:36;;;;;;;5.83;3.67;;;13.80;99.90;;;;;;5046690;28;20256;-84
2023/08/24 04:25:03;;;;;;;40.33;4.43;;;13.60;99.90;;;;;;5029234;28;20664;-85
2023/08/24 04:27:29;;;;;;;28.37;4.80;;;13.60;99.90;;;;;;5046608;28;20205;-84
2023/08/24 04:29:54;;;;;;;3.83;3.23;;;13.70;99.90;;;;;;5046049;28;20256;-85
2023/08/24 04:32:21;;;;;;;3.97;2.77;;;13.70;99.90;;;;;;5029178;28;20264;-84
2023/08/24 04:34:47;;;;;;;5.70;3.00;;;13.70;99.90;;;;;;5029024;28;20222;-83
2023/08/24 04:37:13;;;;;;;13.40;3.30;;;13.80;99.90;;;;;;5029210;28;20677;-83
2023/08/24 04:39:38;;;;;;;8.40;3.43;;;13.80;99.90;;;;;;5046588;28;20624;-84
2023/08/24 04:42:05;;;;;;;5.53;3.27;;;13.60;99.90;;;;;;5047129;28;20642;-84
2023/08/24 04:44:32;;;;;;;12.13;4.60;;;13.60;99.90;;;;;;5046657;28;20213;-84
2023/08/24 04:46:57;;;;;;;30.57;3.20;;;13.70;99.90;;;;;;5029091;28;20213;-83
2023/08/24 04:49:23;;;;;;;5.33;2.77;;;13.60;99.90;;;;;;5046644;28;20225;-84
2023/08/24 04:51:49;;;;;;;6.60;4.00;;;13.50;99.90;;;;;;5012733;28;20801;-84
2023/08/24 04:54:15;;;;;;;4.53;4.13;;;13.60;99.90;;;;;;5029169;28;20317;-83
2023/08/24 04:56:41;;;;;;;13.30;4.00;;;13.80;99.90;;;;;;5046779;28;20210;-84
2023/08/24 04:59:07;;;;;;;23.43;3.93;;;13.80;99.90;;;;;;5028936;28;20564;-84
2023/08/24 05:01:34;;;;;;;52.53;5.47;;;13.90;99.90;;;;;;5046514;28;20236;-84
2023/08/24 05:04:00;;;;;;;6.03;3.03;;;14.00;99.90;;;;;;5046549;28;20300;-83
2023/08/24 05:06:26;;;;;;;4.27;3.33;;;14.00;99.90;;;;;;5064301;28;20332;-83
2023/08/24 05:08:52;;;;;;;5.30;4.30;;;14.00;99.90;;;;;;5049304;28;20177;-84
2023/08/24 05:11:19;;;;;;;7.47;3.70;;;14.00;99.90;;;;;;5048789;28;20221;-84
2023/08/24 05:13:46;;;;;;;5.10;3.60;;;14.10;99.90;;;;;;5066374;28;20221;-83
2023/08/24 05:16:13;;;;;;;5.90;4.07;;;14.20;99.90;;;;;;5066578;28;20209;-85
2023/08/24 05:18:39;;;;;;;5.47;3.50;;;14.20;99.90;;;;;;5066486;28;20209;-84
2023/08/24 05:21:05;;;;;;;8.43;4.73;;;14.30;99.90;;;;;;5049016;28;20232;-84
2023/08/24 05:23:32;;;;;;;5.53;4.37;;;14.40;99.90;;;;;;5068230;28;20712;-84
2023/08/24 05:25:59;;;;;;;10.53;4.13;;;14.40;99.90;;;;;;5069960;28;20256;-84
2023/08/24 05:28:29;;;;;;;9.10;6.20;;;14.50;99.90;;;;;;5070297;28;20210;-85
2023/08/24 05:30:55;;;;;;;6.50;5.33;;;14.70;99.90;;;;;;5070032;28;20236;-85
2023/08/24 05:33:22;;;;;;;10.77;6.30;;;14.90;99.90;;;;;;5069794;28;20347;-85
2023/08/24 05:35:49;;;;;;;7.87;5.97;;;15.10;99.90;;;;;;5070216;28;20627;-84
2023/08/24 05:38:15;;;;;;;16.87;5.97;;;15.20;99.90;;;;;;5052204;28;20209;-85
2023/08/24 05:40:43;;;;;;;11.87;6.63;;;15.30;99.90;;;;;;5069793;28;20374;-84
2023/08/24 05:43:09;;;;;;;14.53;8.10;;;15.40;99.90;;;;;;5052157;28;20212;-85
2023/08/24 05:45:36;;;;;;;9.30;5.53;;;15.50;99.90;;;;;;5051647;28;20178;-83
2023/08/24 05:48:02;;;;;;;12.10;6.00;;;15.40;99.90;;;;;;5052334;28;20242;-83
2023/08/24 05:50:27;;;;;;;9.00;5.80;;;15.50;99.90;;;;;;5051778;28;20414;-83
2023/08/24 05:52:53;;;;;;;10.60;6.67;;;15.60;99.90;;;;;;5069745;28;20213;-83
2023/08/24 05:55:20;;;;;;;9.50;5.47;;;15.70;99.90;;;;;;5069478;28;20748;-84
2023/08/24 05:57:46;;;;;;;10.13;5.53;;;15.70;99.90;;;;;;5069398;28;20213;-82
2023/08/24 06:00:12;;;;;;;13.37;5.93;;;15.70;99.90;;;;;;5069591;28;20322;-84
2023/08/24 06:02:39;;;;;;;8.40;5.60;;;15.80;99.90;;;;;;5058388;28;20701;-83
2023/08/24 06:05:07;;;;;;;8.10;5.23;;;15.90;99.90;;;;;;5069151;28;20233;-83
2023/08/24 06:07:33;;;;;;;10.90;6.10;;;16.00;99.90;;;;;;5068896;28;20212;-83
2023/08/24 06:09:58;;;;;;;18.17;9.53;;;17.30;99.90;;;;;;5068968;28;20586;-84
2023/08/24 06:12:24;;;;;;;17.00;9.63;;;19.40;99.90;;;;;;5068823;28;20264;-83
2023/08/24 06:14:50;;;;;;;16.50;8.37;;;20.90;99.90;;;;;;5051731;28;20188;-82
2023/08/24 06:17:16;;;;;;;11.27;6.23;;;22.20;99.90;;;;;;5068638;28;20561;-83
2023/08/24 06:19:42;;;;;;;6.37;4.50;;;23.20;99.90;;;;;;5068387;28;20224;-81
2023/08/24 06:22:08;;;;;;;5.13;4.47;;;23.90;99.90;;;;;;5068641;28;20737;-81
2023/08/24 06:24:33;;;;;;;5.63;4.00;;;23.60;99.90;;;;;;5050723;28;20178;-81
2023/08/24 06:26:59;;;;;;;4.17;3.07;;;24.70;99.90;;;;;;5068932;28;20297;-83
2023/08/24 06:29:25;;;;;;;6.23;3.60;;;24.90;99.90;;;;;;5068618;28;20600;-81
2023/08/24 06:31:50;;;;;;;8.38;4.10;;;25.50;99.90;;;;;;5068235;28;20236;-81
2023/08/24 06:34:16;;;;;;;5.95;3.85;;;25.70;99.90;;;;;;5050277;28;20213;-79
2023/08/24 06:36:42;;;;;;;5.63;3.45;;;25.00;99.90;;;;;;5068075;28;20282;-81
2023/08/24 06:39:08;;;;;;;4.85;3.63;;;23.00;99.90;;;;;;5051265;28;20178;-85
2023/08/24 06:41:35;;;;;;;4.10;3.22;;;21.40;99.90;;;;;;5050174;28;20224;-84
2023/08/24 06:44:03;;;;;;;9.23;4.20;;;20.50;99.90;;;;;;5068795;28;20217;-85
2023/08/24 06:46:29;;;;;;;4.20;3.80;;;19.80;99.90;;;;;;5068775;28;20205;-85
2023/08/24 06:48:55;;;;;;;5.47;3.50;;;19.30;99.90;;;;;;5050831;28;20215;-84
2023/08/24 06:51:21;;;;;;;7.63;3.97;;;19.00;99.90;;;;;;5034379;28;20200;-85
2023/08/24 06:53:48;;;;;;;6.73;3.77;;;19.00;99.90;;;;;;5034491;28;20619;-85
2023/08/24 06:56:15;;;;;;;9.67;3.60;;;20.00;99.90;;;;;;5050986;28;20237;-84
2023/08/24 06:58:41;;;;;;;4.13;3.40;;;20.90;99.90;;;;;;5050554;28;20278;-84
2023/08/24 07:01:07;;;;;;;6.43;3.23;;;22.00;99.90;;;;;;5050481;28;20678;-86
2023/08/24 07:03:33;;;;;;;6.50;3.35;;;22.60;99.90;;;;;;5050228;28;20641;-85
2023/08/24 07:05:59;;;;;;;5.40;2.80;;;22.70;99.90;;;;;;5037383;28;20321;-84
2023/08/24 07:08:25;;;;;;;5.53;4.90;;;23.30;99.90;;;;;;5030815;28;20715;-86
2023/08/24 07:10:50;;;;;;;5.28;3.42;;;23.40;99.90;;;;;;5030466;28;20244;-83
2023/08/24 07:13:16;;;;;;;6.65;3.53;;;23.60;99.90;;;;;;5030267;28;20701;-84
2023/08/24 07:15:42;;;;;;;6.88;3.42;;;24.00;99.90;;;;;;5030517;28;20221;-83
2023/08/24 07:18:08;;;;;;;3.58;3.22;;;24.20;99.90;;;;;;5031028;28;20194;-84
2023/08/24 07:20:35;;;;;;;4.18;3.75;;;24.50;99.90;;;;;;5047832;28;20807;-83
2023/08/24 07:23:01;;;;;;;3.97;2.78;;;24.20;99.90;;;;;;5063666;28;20218;-84
2023/08/24 07:25:30;;;;;;;4.05;3.33;;;24.40;99.90;;;;;;5047982;28;20222;-83
2023/08/24 07:27:58;;;;;;;3.15;2.85;;;24.40;99.90;;;;;;5047585;28;20698;-84
2023/08/24 07:30:27;;;;;;;5.93;3.45;;;24.00;99.90;;;;;;5047875;28;20214;-83
2023/08/24 07:32:53;;;;;;;4.75;2.63;;;23.90;99.90;;;;;;5030906;28;20627;-83
2023/08/24 07:35:20;;;;;;;4.43;2.78;;;23.80;99.90;;;;;;5048558;28;20217;-89
2023/08/24 07:37:49;;;;;;;4.07;2.83;;;22.80;99.90;;;;;;5031516;28;20659;-91
2023/08/24 07:40:15;;;;;;;3.53;2.95;;;22.20;99.90;;;;;;5032220;28;20213;-89
2023/08/24 07:42:45;;;;;;;4.60;2.70;;;22.90;99.90;;;;;;5048126;28;20268;-85
2023/08/24 07:45:11;;;;;;;5.32;2.63;;;22.60;99.90;;;;;;5032290;28;20523;-92
2023/08/24 07:47:37;;;;;;;2.95;2.42;;;22.50;99.90;;;;;;5048385;28;20718;-91
2023/08/24 07:50:03;;;;;;;6.75;3.47;;;22.90;99.90;;;;;;5014794;28;20305;-92
2023/08/24 07:52:29;;;;;;;2.67;2.05;;;23.50;99.90;;;;;;5031342;28;20210;-89
2023/08/24 07:54:59;;;;;;;5.63;2.50;;;22.90;99.90;;;;;;5031252;28;20538;-87
2023/08/24 07:57:26;;;;;;;2.90;2.67;;;22.90;99.90;;;;;;5032337;28;20285;-89
2023/08/24 07:59:52;;;;;;;3.22;2.70;;;22.80;99.90;;;;;;5051031;28;20198;-90
2023/08/24 08:02:18;;;;;;;2.50;2.22;;;23.00;99.90;;;;;;5032225;28;20217;-89
2023/08/24 08:04:44;;;;;;;2.78;2.33;;;22.90;99.90;;;;;;5052910;28;20734;-88
2023/08/24 08:07:10;;;;;;;3.88;2.78;;;22.60;99.90;;;;;;5069345;28;20272;-91
2023/08/24 08:09:38;;;;;;;3.50;1.73;;;22.10;99.90;;;;;;5034769;28;20170;-93
2023/08/24 08:12:04;;;;;;;2.90;1.85;;;21.80;99.90;;;;;;5035773;28;20178;-92
2023/08/24 08:14:30;;;;;;;3.25;2.03;;;22.40;99.90;;;;;;5035040;28;20534;-92
2023/08/24 08:16:56;;;;;;;2.10;1.88;;;23.10;99.90;;;;;;5068811;28;20658;-89
2023/08/24 08:19:25;;;;;;;4.35;2.00;;;22.70;99.90;;;;;;5068553;28;20224;-88
2023/08/24 08:21:51;;;;;;;3.05;2.17;;;22.90;99.90;;;;;;5034967;28;20209;-87
2023/08/24 08:24:17;;;;;;;1.95;1.73;;;24.00;99.90;;;;;;5069691;28;20177;-89
2023/08/24 08:26:42;;;;;;;2.03;1.88;;;24.30;99.90;;;;;;5050772;28;20213;-88
2023/08/24 08:29:08;;;;;;;1.92;1.83;;;24.00;99.90;;;;;;5068995;28;20223;-89
2023/08/24 08:31:34;;;;;;;2.65;2.17;;;23.40;99.90;;;;;;5034231;28;20225;-90
2023/08/24 08:34:00;;;;;;;2.80;1.73;;;23.10;99.90;;;;;;5051530;28;20216;-89
2023/08/24 08:36:25;;;;;;;7.03;2.63;;;23.60;99.90;;;;;;5070318;28;20320;-89
2023/08/24 08:38:51;;;;;;;4.60;2.55;;;24.40;99.90;;;;;;5052982;28;20207;-89
2023/08/24 08:41:21;;;;;;;3.15;2.05;;;24.60;99.90;;;;;;5068375;28;20577;-89
2023/08/24 08:43:50;;;;;;;3.38;2.25;;;25.90;99.90;;;;;;5052181;28;20632;-92
2023/08/24 08:46:16;;;;;;;1.95;1.67;;;25.30;99.90;;;;;;5034761;28;20271;-93
2023/08/24 08:48:43;;;;;;;2.90;1.98;;;25.10;99.90;;;;;;5052414;28;20209;-91
2023/08/24 08:51:10;;;;;;;4.40;2.70;;;25.00;99.90;;;;;;5053409;28;20197;-92
2023/08/24 08:53:36;;;;;;;5.32;2.47;;;24.90;99.90;;;;;;5052275;28;20205;-90
2023/08/24 08:56:04;;;;;;;4.38;2.97;;;24.60;99.90;;;;;;5051810;28;20236;-93
2023/08/24 08:58:31;;;;;;;4.60;2.45;;;24.70;99.90;;;;;;5054102;28;20254;-91
2023/08/24 09:00:59;;;;;;;3.53;2.63;;;24.50;99.90;;;;;;5055894;28;20216;-93
2023/08/24 09:03:28;;;;;;;4.85;3.00;;;24.40;99.90;;;;;;5073725;28;20181;-88
2023/08/24 09:05:54;;;;;;;10.10;3.50;;;24.00;99.90;;;;;;5049680;28;20227;-91
2023/08/24 09:08:21;;;;;;;3.60;2.78;;;23.50;99.90;;;;;;5056606;28;20221;-91
2023/08/24 09:10:47;;;;;;;3.00;2.65;;;23.30;99.90;;;;;;5055978;28;20225;-91
2023/08/24 09:13:13;;;;;;;5.38;3.13;;;22.90;99.90;;;;;;5038453;28;20563;-89
2023/08/24 09:15:39;;;;;;;3.97;3.00;;;22.50;99.90;;;;;;5056153;28;20376;-91
2023/08/24 09:18:05;;;;;;;5.05;3.40;;;22.40;99.90;;;;;;5073598;28;20681;-90
2023/08/24 09:20:31;;;;;;;7.20;3.90;;;22.40;99.90;;;;;;5073374;28;20213;-92
2023/08/24 09:22:57;;;;;;;5.47;3.60;;;22.30;99.90;;;;;;5055771;28;20267;-89
2023/08/24 09:25:24;;;;;;;7.03;3.08;;;22.10;99.90;;;;;;5037948;28;20229;-92
2023/08/24 09:27:57;;;;;;;4.53;3.30;;;21.90;99.90;;;;;;5038228;28;20205;-91
2023/08/24 09:30:28;;;;;;;4.57;3.60;;;21.80;99.90;;;;;;5054599;28;20213;-93
2023/08/24 09:32:54;;;;;;;5.28;3.22;;;21.50;99.90;;;;;;5073412;28;20153;-95
2023/08/24 09:35:21;;;;;;;4.88;3.50;;;21.50;99.90;;;;;;5087459;28;20240;-91
2023/08/24 09:37:49;;;;;;;6.40;4.30;;;21.40;99.90;;;;;;5071274;28;20216;-91
2023/08/24 09:40:15;;;;;;;7.45;3.92;;;21.40;99.90;;;;;;5070805;28;20216;-93
2023/08/24 09:42:42;;;;;;;7.43;4.13;;;21.30;99.90;;;;;;5037910;28;20204;-91
2023/08/24 09:45:12;;;;;;;5.68;3.30;;;21.20;99.90;;;;;;5055377;28;20531;-93
2023/08/24 09:47:38;;;;;;;6.47;4.13;;;21.10;99.90;;;;;;5071101;28;20299;-94
2023/08/24 09:50:05;;;;;;;6.63;3.20;;;20.90;99.90;;;;;;5054194;28;20290;-91
2023/08/24 09:52:34;;;;;;;6.60;3.97;;;20.90;99.90;;;;;;5054891;28;20215;-94
2023/08/24 09:55:07;;;;;;;8.93;4.90;;;20.90;99.90;;;;;;5055000;28;20563;-94
2023/08/24 09:57:42;;;;;;;5.50;3.80;;;20.80;99.90;;;;;;5054549;28;20627;-90
2023/08/24 10:00:22;;;;;;;6.40;4.10;;;20.70;99.90;;;;;;5072581;28;20175;-91
2023/08/24 10:02:55;;;;;;;9.07;4.57;;;20.60;99.90;;;;;;5072061;28;20250;-90
2023/08/24 10:05:23;;;;;;;8.10;5.03;;;20.60;99.90;;;;;;5072018;28;20205;-90
2023/08/24 10:07:55;;;;;;;7.17;5.00;;;20.50;99.90;;;;;;5072537;28;20213;-91
2023/08/24 10:10:24;;;;;;;6.80;4.90;;;20.50;99.90;;;;;;5071402;28;20229;-94
2023/08/24 10:12:59;;;;;;;6.00;4.10;;;20.40;99.90;;;;;;5054284;28;20205;-94
2023/08/24 10:15:26;;;;;;;6.40;4.43;;;20.40;99.90;;;;;;5054220;28;20168;-93
2023/08/24 10:17:53;;;;;;;7.17;4.53;;;20.30;99.90;;;;;;5055195;28;20232;-92
2023/08/24 10:20:22;;;;;;;6.53;4.03;;;20.20;99.90;;;;;;5053653;28;20244;-91
2023/08/24 10:22:49;;;;;;;6.47;4.30;;;20.10;99.90;;;;;;5054190;28;20246;-92
2023/08/24 10:25:18;;;;;;;9.00;5.13;;;20.10;99.90;;;;;;5054337;28;20240;-93
2023/08/24 10:27:47;;;;;;;8.47;4.13;;;20.00;99.90;;;;;;5071833;28;20209;-90
2023/08/24 10:30:15;;;;;;;9.07;5.33;;;19.90;99.90;;;;;;5053574;28;20240;-93
2023/08/24 10:32:43;;;;;;;6.60;4.70;;;19.90;99.90;;;;;;5054540;28;20213;-92
2023/08/24 10:35:08;;;;;;;9.20;5.20;;;19.90;99.90;;;;;;5053803;28;20209;-94
2023/08/24 10:37:34;;;;;;;5.53;4.07;;;19.90;99.90;;;;;;5054217;28;20368;-93
2023/08/24 10:40:01;;;;;;;5.93;4.87;;;19.90;99.90;;;;;;5069825;28;20212;-93
2023/08/24 10:42:26;;;;;;;11.83;5.63;;;19.90;99.90;;;;;;5071529;28;20180;-94
2023/08/24 10:44:52;;;;;;;7.70;4.60;;;20.00;99.90;;;;;;5071875;28;20173;-92
2023/08/24 10:47:20;;;;;;;8.27;5.17;;;20.00;99.90;;;;;;5053662;28;20213;-94
2023/08/24 10:50:00;;;;;;;9.33;4.90;;;20.00;99.90;;;;;;5070782;28;20267;-92
2023/08/24 10:52:39;;;;;;;7.80;4.63;;;20.00;99.90;;;;;;5053777;28;20224;-93
2023/08/24 10:55:26;;;;;;;11.27;6.20;;;20.00;99.90;;;;;;5070880;28;20209;-93
2023/08/24 10:58:02;;;;;;;6.23;4.50;;;20.00;99.90;;;;;;5053754;28;20267;-93
2023/08/24 11:00:31;;;;;;;6.57;4.40;;;20.00;99.90;;;;;;5052699;28;20271;-94
2023/08/24 11:02:57;;;;;;;7.63;4.63;;;20.00;99.90;;;;;;5087471;28;20180;-92
2023/08/24 11:05:24;;;;;;;7.13;4.93;;;20.00;99.90;;;;;;5052871;28;20249;-93
2023/08/24 11:07:57;;;;;;;7.30;5.17;;;19.90;99.90;;;;;;5053465;28;20282;-94
2023/08/24 11:10:31;;;;;;;7.07;5.17;;;20.00;99.90;;;;;;5070273;28;20709;-94
2023/08/24 11:13:11;;;;;;;9.97;5.70;;;20.00;99.90;;;;;;5053462;28;20240;-91
2023/08/24 11:15:44;;;;;;;9.37;6.20;;;20.10;99.90;;;;;;5070767;28;20208;-93
2023/08/24 11:18:25;;;;;;;9.37;5.47;;;20.10;99.90;;;;;;5054115;28;20161;-92
2023/08/24 11:20:56;;;;;;;12.90;6.00;;;20.10;99.90;;;;;;5067998;28;20205;-95
2023/08/24 11:23:24;;;;;;;9.80;5.83;;;20.10;99.90;;;;;;5053134;28;20213;-94
2023/08/24 11:26:00;;;;;;;9.63;5.87;;;20.10;99.90;;;;;;5052684;28;20209;-89
2023/08/24 11:28:28;;;;;;;7.73;5.40;;;20.30;99.90;;;;;;5052390;28;20622;-95
2023/08/24 11:30:55;;;;;;;7.13;5.63;;;20.40;99.90;;;;;;5057482;28;20231;-91
2023/08/24 11:33:32;;;;;;;9.53;5.60;;;20.60;99.90;;;;;;5052031;28;20212;-90
2023/08/24 11:36:04;;;;;;;11.00;5.00;;;20.70;99.90;;;;;;5052987;28;20272;-93
2023/08/24 11:38:42;;;;;;;8.50;5.57;;;20.70;99.90;;;;;;5053189;28;20730;-93
2023/08/24 11:41:16;;;;;;;10.00;5.60;;;20.60;99.90;;;;;;5052031;28;20227;-94
2023/08/24 11:43:50;;;;;;;10.23;6.13;;;20.50;99.90;;;;;;5052969;28;20224;-90
2023/08/24 11:46:18;;;;;;;8.87;5.90;;;20.40;99.90;;;;;;5052294;28;20208;-93
2023/08/24 11:48:45;;;;;;;7.47;5.57;;;20.30;99.90;;;;;;5052595;28;20209;-91
2023/08/24 11:51:12;;;;;;;9.27;6.30;;;20.40;99.90;;;;;;5052317;28;20255;-92
2023/08/24 11:53:40;;;;;;;8.20;5.93;;;20.40;99.90;;;;;;5069661;28;20223;-90
2023/08/24 11:56:12;;;;;;;7.93;5.23;;;20.30;99.90;;;;;;5051736;28;20301;-90
2023/08/24 11:58:43;;;;;;;6.23;5.53;;;20.20;99.90;;;;;;5069631;28;20213;-91
2023/08/24 12:01:10;;;;;;;8.97;5.87;;;20.10;99.90;;;;;;5051615;28;20304;-92
2023/08/24 12:03:37;;;;;;;7.67;5.33;;;20.10;99.90;;;;;;5069822;28;20218;-91
2023/08/24 12:06:14;;;;;;;9.13;5.97;;;20.10;99.90;;;;;;5061732;28;20218;-93
2023/08/24 12:08:41;;;;;;;8.60;6.30;;;20.20;99.90;;;;;;5049071;28;20223;-91
2023/08/24 12:11:20;;;;;;;8.13;6.27;;;20.20;99.90;;;;;;5049011;28;20257;-91
2023/08/24 12:13:52;;;;;;;16.17;6.93;;;20.10;99.90;;;;;;5032387;28;20263;-93
2023/08/24 12:16:19;;;;;;;11.03;7.00;;;20.10;99.90;;;;;;5031701;28;20209;-91
2023/08/24 12:18:52;;;;;;;10.87;6.87;;;20.10;99.90;;;;;;5015957;28;20198;-94
2023/08/24 12:21:19;;;;;;;10.77;6.80;;;20.00;99.90;;;;;;5048850;28;20181;-91
2023/08/24 12:23:54;;;;;;;12.87;7.70;;;19.90;99.90;;;;;;5031547;28;20178;-90
2023/08/24 12:26:20;;;;;;;13.40;7.50;;;19.90;99.90;;;;;;5031054;28;20252;-91
2023/08/24 12:28:53;;;;;;;14.97;8.00;;;19.90;99.90;;;;;;5031677;28;20234;-92
2023/08/24 12:31:26;;;;;;;11.07;6.33;;;19.80;99.90;;;;;;5048557;28;20233;-93
2023/08/24 12:34:03;;;;;;;13.87;7.97;;;19.90;99.90;;;;;;5034045;28;20252;-91
2023/08/24 12:36:31;;;;;;;10.27;6.90;;;20.00;99.90;;;;;;5053081;28;20180;-93
2023/08/24 12:38:58;;;;;;;13.83;7.03;;;20.00;99.90;;;;;;5036587;28;20174;-94
2023/08/24 12:41:24;;;;;;;11.43;7.70;;;20.00;99.90;;;;;;5035037;28;20217;-90
2023/08/24 12:43:51;;;;;;;11.80;7.80;;;19.90;99.90;;;;;;5035849;28;20237;-95
2023/08/24 12:46:17;;;;;;;10.73;7.37;;;19.90;99.90;;;;;;5019147;28;20216;-92
2023/08/24 12:48:43;;;;;;;9.67;7.23;;;20.00;99.90;;;;;;5034984;28;20365;-92